Time;durP1;ratioP1;P1;durP2;ratioP2;P2;SDS_P1;SDS_P2;PMS_P1;PMS_P2;Temp;Humidity;BMP_temperature;BMP_pressure;BME280_temperature;BME280_humidity;BME280_pressure;Samples;Min_cycle;Max_cycle;Signal;HPM_P1;HPM_P2
2021/03/06 00:02:12;;;;;;;0.00;0.00;;;14.90;59.70;;;;;;4213900;28;20059;-41
2021/03/06 00:04:52;;;;;;;12.80;1.65;;;14.90;59.40;;;;;;4214170;28;20059;-40
2021/03/06 00:07:32;;;;;;;0.10;0.10;;;15.00;59.90;;;;;;4197421;28;20055;-41
2021/03/06 00:10:13;;;;;;;0.00;0.00;;;15.00;59.10;;;;;;4213502;28;20156;-40
2021/03/06 00:12:50;;;;;;;0.15;0.15;;;15.00;59.00;;;;;;4197168;28;20060;-40
2021/03/06 00:15:14;;;;;;;0.00;0.00;;;15.00;59.00;;;;;;4197204;28;20049;-40
2021/03/06 00:17:38;;;;;;;0.00;0.00;;;15.00;59.10;;;;;;4197096;28;20153;-40
2021/03/06 00:20:00;;;;;;;0.63;0.63;;;15.00;59.10;;;;;;4211771;28;20079;-42
2021/03/06 00:22:23;;;;;;;0.00;0.00;;;14.90;59.10;;;;;;4197144;28;20063;-41
2021/03/06 00:24:44;;;;;;;0.10;0.10;;;15.00;59.20;;;;;;4197074;28;20045;-40
2021/03/06 00:27:07;;;;;;;0.10;0.10;;;15.00;59.20;;;;;;4197014;28;20060;-40
2021/03/06 00:29:31;;;;;;;0.00;0.00;;;15.20;58.90;;;;;;4196939;28;20062;-40
2021/03/06 00:31:58;;;;;;;0.00;0.00;;;15.40;59.00;;;;;;4212490;28;20052;-40
2021/03/06 00:34:40;;;;;;;16.45;0.55;;;15.50;57.90;;;;;;4213736;28;20058;-41
2021/03/06 00:37:10;;;;;;;0.00;0.00;;;15.60;57.70;;;;;;4213584;28;20055;-41
2021/03/06 00:39:49;;;;;;;1.95;0.55;;;15.60;57.60;;;;;;4213535;28;20109;-40
2021/03/06 00:42:13;;;;;;;0.00;0.00;;;15.50;57.70;;;;;;4213240;28;20051;-40
2021/03/06 00:44:34;;;;;;;0.00;0.00;;;15.60;57.70;;;;;;4213567;28;20079;-40
2021/03/06 00:47:05;;;;;;;0.00;0.00;;;15.60;57.50;;;;;;4213487;28;20165;-40
2021/03/06 00:49:29;;;;;;;0.00;0.00;;;15.70;57.50;;;;;;4213377;28;20113;-40
2021/03/06 00:51:54;;;;;;;0.00;0.00;;;15.60;57.40;;;;;;4211148;28;20590;-42
2021/03/06 00:54:26;;;;;;;0.00;0.00;;;15.60;57.50;;;;;;4211486;28;20054;-41
2021/03/06 00:56:50;;;;;;;0.10;0.10;;;15.70;57.40;;;;;;4213291;28;20098;-40
2021/03/06 00:59:17;;;;;;;0.00;0.00;;;15.70;57.40;;;;;;4212199;28;20516;-47
2021/03/06 01:01:57;;;;;;;0.03;0.03;;;15.80;57.40;;;;;;4213001;28;20070;-41
2021/03/06 01:04:19;;;;;;;0.30;0.30;;;15.80;57.10;;;;;;4212115;28;20117;-40
2021/03/06 01:06:49;;;;;;;0.10;0.10;;;15.90;56.90;;;;;;4212836;28;20074;-41
2021/03/06 01:09:30;;;;;;;0.00;0.00;;;16.00;56.80;;;;;;4213207;28;20055;-41
2021/03/06 01:12:10;;;;;;;0.00;0.00;;;16.00;56.80;;;;;;4196201;28;20438;-40
2021/03/06 01:14:34;;;;;;;0.32;0.32;;;15.90;56.90;;;;;;4196325;28;20806;-40
2021/03/06 01:16:55;;;;;;;0.13;0.13;;;15.90;56.90;;;;;;4211719;28;20048;-43
2021/03/06 01:19:36;;;;;;;0.00;0.00;;;16.00;56.70;;;;;;4213022;28;20051;-40
2021/03/06 01:22:09;;;;;;;0.00;0.00;;;16.10;56.60;;;;;;4196115;28;20059;-41
2021/03/06 01:24:50;;;;;;;0.08;0.08;;;16.00;56.60;;;;;;4196212;28;20051;-42
2021/03/06 01:27:26;;;;;;;0.00;0.00;;;16.00;56.70;;;;;;4196045;28;20731;-40
2021/03/06 01:29:47;;;;;;;0.00;0.00;;;15.90;56.70;;;;;;4198463;28;20055;-40
2021/03/06 01:32:27;;;;;;;0.10;0.10;;;15.90;56.90;;;;;;4195879;28;20059;-40
2021/03/06 01:34:57;;;;;;;0.32;0.32;;;15.80;57.10;;;;;;4196745;28;20050;-40
2021/03/06 01:37:34;;;;;;;0.00;0.00;;;15.70;57.30;;;;;;4195936;28;20056;-41
2021/03/06 01:40:10;;;;;;;0.00;0.00;;;15.80;57.20;;;;;;4198369;28;20192;-40
2021/03/06 01:42:38;;;;;;;0.00;0.00;;;15.80;57.20;;;;;;4212691;28;20149;-40
2021/03/06 01:45:10;;;;;;;0.00;0.00;;;15.80;57.00;;;;;;4212572;28;20079;-40
2021/03/06 01:47:49;;;;;;;0.00;0.00;;;15.80;57.00;;;;;;4212739;28;20055;-41
2021/03/06 01:50:13;;;;;;;0.15;0.15;;;15.80;57.00;;;;;;4212077;28;20059;-41
2021/03/06 01:52:53;;;;;;;0.10;0.10;;;15.80;57.00;;;;;;4212336;28;20058;-40
2021/03/06 01:55:31;;;;;;;0.00;0.00;;;15.70;57.20;;;;;;4195712;28;20518;-40
2021/03/06 01:58:12;;;;;;;0.00;0.00;;;15.70;57.30;;;;;;4195751;28;20055;-40
2021/03/06 02:00:37;;;;;;;0.00;0.00;;;15.60;57.50;;;;;;4204516;28;20067;-40
2021/03/06 02:03:16;;;;;;;0.03;0.03;;;15.70;57.50;;;;;;4212359;28;20055;-40
2021/03/06 02:05:57;;;;;;;0.28;0.28;;;15.70;57.30;;;;;;4211983;28;20459;-40
2021/03/06 02:08:37;;;;;;;0.10;0.10;;;15.80;57.10;;;;;;4212278;28;20133;-40
2021/03/06 02:11:30;;;;;;;0.00;0.00;;;15.90;57.00;;;;;;4209656;28;20117;-41
2021/03/06 02:14:20;;;;;;;0.00;0.00;;;15.90;56.90;;;;;;4212267;28;20513;-40
2021/03/06 02:17:07;;;;;;;0.00;0.00;;;16.10;56.70;;;;;;4212248;28;20529;-40
2021/03/06 02:20:21;;;;;;;0.15;0.15;;;16.30;56.10;;;;;;4211635;28;20059;-40
2021/03/06 02:23:23;;;;;;;0.50;0.50;;;16.40;55.60;;;;;;4200781;28;20102;-40
2021/03/06 02:26:19;;;;;;;0.00;0.00;;;16.50;55.60;;;;;;4212199;28;20116;-40
2021/03/06 02:28:51;;;;;;;0.45;0.45;;;16.30;55.70;;;;;;4211998;28;20052;-40
2021/03/06 02:31:17;;;;;;;0.03;0.03;;;16.30;56.00;;;;;;4211840;28;20125;-40
2021/03/06 02:34:02;;;;;;;0.00;0.00;;;16.30;56.00;;;;;;4212165;28;20063;-40
2021/03/06 02:36:35;;;;;;;0.68;0.68;;;16.30;56.10;;;;;;4195367;28;20178;-39
2021/03/06 02:39:00;;;;;;;0.00;0.00;;;16.20;56.20;;;;;;4195372;28;20149;-40
2021/03/06 02:41:42;;;;;;;0.00;0.00;;;16.10;56.40;;;;;;4195400;28;20095;-40
2021/03/06 02:44:23;;;;;;;0.00;0.00;;;16.00;56.60;;;;;;4198438;28;20063;-40
2021/03/06 02:46:51;;;;;;;0.17;0.17;;;16.00;56.60;;;;;;4212057;28;20074;-40
2021/03/06 02:49:24;;;;;;;0.00;0.00;;;16.10;56.60;;;;;;4211627;28;20059;-40
2021/03/06 02:51:47;;;;;;;0.03;0.03;;;16.00;56.70;;;;;;4211914;28;20052;-41
2021/03/06 02:54:17;;;;;;;0.10;0.10;;;15.90;56.80;;;;;;4211953;28;20559;-43
2021/03/06 02:56:38;;;;;;;0.10;0.10;;;15.90;57.00;;;;;;4211855;28;20055;-44
2021/03/06 02:59:17;;;;;;;0.00;0.00;;;15.90;57.10;;;;;;4211951;28;20079;-41
2021/03/06 03:01:54;;;;;;;0.03;0.03;;;16.10;56.60;;;;;;4211608;28;20603;-45
2021/03/06 03:04:30;;;;;;;0.00;0.00;;;16.40;55.90;;;;;;4211758;28;20540;-42
2021/03/06 03:07:00;;;;;;;0.00;0.00;;;16.50;55.40;;;;;;4211793;28;20055;-42
2021/03/06 03:09:42;;;;;;;0.00;0.00;;;16.60;55.30;;;;;;4210988;28;20059;-40
2021/03/06 03:12:24;;;;;;;0.00;0.00;;;16.50;55.40;;;;;;4211845;28;20468;-42
2021/03/06 03:14:54;;;;;;;0.00;0.00;;;16.50;55.60;;;;;;4211596;28;20055;-45
2021/03/06 03:17:37;;;;;;;0.00;0.00;;;16.50;55.60;;;;;;4212292;28;20464;-42
2021/03/06 03:20:22;;;;;;;1.73;0.80;;;16.50;55.50;;;;;;4214511;28;20078;-43
2021/03/06 03:22:58;;;;;;;0.00;0.00;;;16.40;55.60;;;;;;4214811;28;20113;-43
2021/03/06 03:25:23;;;;;;;0.10;0.10;;;16.40;55.80;;;;;;4214562;28;20605;-41
2021/03/06 03:28:07;;;;;;;0.08;0.08;;;16.30;56.00;;;;;;4214408;28;20071;-41
2021/03/06 03:30:33;;;;;;;0.00;0.00;;;16.20;56.30;;;;;;4214540;28;20216;-41
2021/03/06 03:33:15;;;;;;;0.00;0.00;;;16.10;56.50;;;;;;4214742;28;20058;-41
2021/03/06 03:35:49;;;;;;;0.95;0.93;;;16.10;56.50;;;;;;4214357;28;20129;-40
2021/03/06 03:38:18;;;;;;;0.10;0.10;;;16.30;56.40;;;;;;4214480;28;20113;-40
2021/03/06 03:40:46;;;;;;;0.00;0.00;;;16.30;56.30;;;;;;4214536;28;20472;-41
2021/03/06 03:43:19;;;;;;;0.00;0.00;;;16.30;56.20;;;;;;4214245;28;20101;-40
2021/03/06 03:46:03;;;;;;;0.03;0.03;;;16.30;56.10;;;;;;4214464;28;20059;-40
2021/03/06 03:48:25;;;;;;;0.00;0.00;;;16.30;56.20;;;;;;4214103;28;20123;-41
2021/03/06 03:51:06;;;;;;;0.00;0.00;;;16.30;56.30;;;;;;4214066;28;20189;-41
2021/03/06 03:53:33;;;;;;;0.00;0.00;;;16.20;56.50;;;;;;4214281;28;20051;-40
2021/03/06 03:55:55;;;;;;;0.00;0.00;;;16.20;56.50;;;;;;4214276;28;20134;-40
2021/03/06 03:58:19;;;;;;;0.80;0.80;;;16.30;56.20;;;;;;4214132;28;20059;-40
2021/03/06 04:01:00;;;;;;;0.00;0.00;;;16.50;55.70;;;;;;4213785;28;20125;-41
2021/03/06 04:03:31;;;;;;;;;;;16.60;55.60;;;;;;4214623;28;20125;-40
2021/03/06 04:06:11;;;;;;;0.00;0.00;;;16.60;55.60;;;;;;4214077;28;19976;-40
2021/03/06 04:08:50;;;;;;;0.00;0.00;;;16.50;55.70;;;;;;4214125;28;20063;-41
2021/03/06 04:11:11;;;;;;;0.00;0.00;;;16.40;55.90;;;;;;4213744;28;20468;-41
2021/03/06 04:13:47;;;;;;;0.00;0.00;;;16.30;56.10;;;;;;4197372;28;20056;-41
2021/03/06 04:16:17;;;;;;;0.00;0.00;;;16.20;56.50;;;;;;4197157;28;20537;-40
2021/03/06 04:18:58;;;;;;;0.00;0.00;;;16.10;56.80;;;;;;4207136;28;20409;-48
2021/03/06 04:21:25;;;;;;;0.03;0.03;;;16.10;56.80;;;;;;4213364;28;20571;-41
2021/03/06 04:23:55;;;;;;;0.15;0.15;;;16.20;56.60;;;;;;4213806;28;20433;-41
2021/03/06 04:26:34;;;;;;;0.05;0.05;;;16.20;56.40;;;;;;4213743;28;20065;-40
2021/03/06 04:29:10;;;;;;;0.00;0.00;;;16.20;56.40;;;;;;4213415;28;20051;-40
2021/03/06 04:31:41;;;;;;;0.00;0.00;;;16.10;56.60;;;;;;4213515;28;20328;-40
2021/03/06 04:34:06;;;;;;;0.00;0.00;;;16.10;56.80;;;;;;4213433;28;20575;-40
2021/03/06 04:36:42;;;;;;;0.10;0.10;;;16.00;57.70;;;;;;4212711;28;20410;-40
2021/03/06 04:39:07;;;;;;;0.03;0.03;;;15.90;57.30;;;;;;4213320;28;20413;-41
2021/03/06 04:41:28;;;;;;;0.22;0.22;;;15.80;57.50;;;;;;4213582;28;20052;-41
2021/03/06 04:43:52;;;;;;;0.32;0.32;;;15.90;57.40;;;;;;4213530;28;20122;-40
2021/03/06 04:46:33;;;;;;;0.05;0.05;;;16.00;57.00;;;;;;4213513;28;20063;-41
2021/03/06 04:49:14;;;;;;;0.00;0.00;;;16.00;56.90;;;;;;4213048;28;20749;-49
2021/03/06 04:51:46;;;;;;;0.90;0.90;;;16.00;56.90;;;;;;4213352;28;20059;-43
2021/03/06 04:54:27;;;;;;;0.00;0.00;;;16.10;56.90;;;;;;4213420;28;20067;-41
2021/03/06 04:57:13;;;;;;;0.00;0.00;;;16.10;56.80;;;;;;4213065;28;20464;-40
2021/03/06 04:59:53;;;;;;;0.00;0.00;;;16.00;56.90;;;;;;4212909;28;20063;-40
2021/03/06 05:02:20;;;;;;;0.00;0.00;;;16.00;57.00;;;;;;4213285;28;20074;-44
2021/03/06 05:04:42;;;;;;;0.00;0.00;;;16.00;57.10;;;;;;4213087;28;20052;-41
2021/03/06 05:07:03;;;;;;;0.00;0.00;;;16.10;57.00;;;;;;4213146;28;20048;-40
2021/03/06 05:09:24;;;;;;;0.47;0.47;;;16.10;56.80;;;;;;4203852;28;20048;-40
2021/03/06 05:11:45;;;;;;;0.00;0.00;;;16.00;56.80;;;;;;4213325;28;20052;-41
2021/03/06 05:14:06;;;;;;;0.00;0.00;;;16.00;57.00;;;;;;4213070;28;20052;-41
2021/03/06 05:16:28;;;;;;;0.30;0.30;;;16.00;57.00;;;;;;4213035;28;20055;-40
2021/03/06 05:18:49;;;;;;;0.00;0.00;;;16.00;57.00;;;;;;4212848;28;20044;-40
2021/03/06 05:21:15;;;;;;;0.00;0.00;;;16.00;57.10;;;;;;4212868;28;20829;-41
2021/03/06 05:23:36;;;;;;;0.08;0.08;;;16.00;57.20;;;;;;4212938;28;20052;-40
2021/03/06 05:25:58;;;;;;;0.00;0.00;;;16.00;57.30;;;;;;4212883;28;20083;-42
2021/03/06 05:28:19;;;;;;;0.00;0.00;;;16.10;57.20;;;;;;4212462;28;20052;-40
2021/03/06 05:30:40;;;;;;;;;;;16.10;56.90;;;;;;4211142;28;20056;-40
2021/03/06 05:33:02;;;;;;;0.00;0.00;;;16.30;56.60;;;;;;4211376;28;19920;-40
2021/03/06 05:35:23;;;;;;;0.00;0.00;;;16.30;56.40;;;;;;4195964;28;20630;-40
2021/03/06 05:37:45;;;;;;;0.70;0.63;;;16.30;56.50;;;;;;4195972;28;20470;-46
2021/03/06 05:40:07;;;;;;;0.00;0.00;;;16.30;56.60;;;;;;4195609;28;20445;-47
2021/03/06 05:42:28;;;;;;;0.55;0.55;;;16.30;56.70;;;;;;4212310;28;20640;-41
2021/03/06 05:44:51;;;;;;;0.13;0.13;;;16.10;56.80;;;;;;4212611;28;20071;-46
2021/03/06 05:47:13;;;;;;;0.00;0.00;;;16.10;57.00;;;;;;4212333;28;20075;-41
2021/03/06 05:49:34;;;;;;;1.88;0.98;;;16.00;57.10;;;;;;4212098;28;20135;-41
2021/03/06 05:51:56;;;;;;;0.00;0.00;;;16.00;57.20;;;;;;4212540;28;20517;-41
2021/03/06 05:54:21;;;;;;;0.10;0.10;;;16.10;57.00;;;;;;4212474;28;20198;-40
2021/03/06 05:56:45;;;;;;;0.00;0.00;;;16.30;56.70;;;;;;4212455;28;20048;-40
2021/03/06 05:59:09;;;;;;;0.00;0.00;;;16.40;57.00;;;;;;4212306;28;20040;-41
2021/03/06 06:01:30;;;;;;;0.00;0.00;;;16.50;56.10;;;;;;4211883;28;20048;-41
2021/03/06 06:03:52;;;;;;;0.08;0.08;;;16.50;56.00;;;;;;4212266;28;20565;-41
2021/03/06 06:06:13;;;;;;;0.15;0.15;;;16.60;55.90;;;;;;4212392;28;20532;-40
2021/03/06 06:08:36;;;;;;;0.00;0.00;;;16.70;55.70;;;;;;4196486;28;20691;-42
2021/03/06 06:10:59;;;;;;;0.00;0.00;;;16.80;55.60;;;;;;4211742;28;20493;-41
2021/03/06 06:13:20;;;;;;;0.05;0.05;;;16.80;55.70;;;;;;4212271;28;20130;-41
2021/03/06 06:15:41;;;;;;;0.63;0.63;;;16.80;55.90;;;;;;4211272;28;20059;-40
2021/03/06 06:18:02;;;;;;;0.00;0.00;;;16.70;55.90;;;;;;4211839;28;20052;-42
2021/03/06 06:20:24;;;;;;;0.00;0.00;;;16.60;56.20;;;;;;4195577;28;20794;-41
2021/03/06 06:22:45;;;;;;;0.00;0.00;;;16.70;56.10;;;;;;4205169;28;20120;-42
2021/03/06 06:25:07;;;;;;;0.00;0.00;;;16.90;55.60;;;;;;4212336;28;20048;-41
2021/03/06 06:27:30;;;;;;;2.17;1.42;;;17.00;55.20;;;;;;4211856;28;20047;-41
2021/03/06 06:29:52;;;;;;;0.00;0.00;;;17.10;54.80;;;;;;4211930;28;20557;-43
2021/03/06 06:32:17;;;;;;;0.00;0.00;;;17.20;54.90;;;;;;4210911;28;20567;-42
2021/03/06 06:34:39;;;;;;;0.00;0.00;;;17.10;55.00;;;;;;4212152;28;20052;-49
2021/03/06 06:37:07;;;;;;;0.00;0.00;;;17.10;55.80;;;;;;4212140;28;20109;-43
2021/03/06 06:39:30;;;;;;;0.00;0.00;;;17.00;55.20;;;;;;4212039;28;20116;-45
2021/03/06 06:41:55;;;;;;;0.00;0.00;;;16.90;55.40;;;;;;4212014;28;20052;-41
2021/03/06 06:44:18;;;;;;;0.00;0.00;;;16.80;55.70;;;;;;4212018;28;20453;-43
2021/03/06 06:46:39;;;;;;;0.00;0.00;;;16.70;55.90;;;;;;4212058;28;20131;-42
2021/03/06 06:49:01;;;;;;;0.00;0.00;;;16.60;56.20;;;;;;4212071;28;20131;-41
2021/03/06 06:51:22;;;;;;;;;;;16.60;56.30;;;;;;4212441;28;20484;-43
2021/03/06 06:53:43;;;;;;;0.52;0.52;;;16.70;56.20;;;;;;4214443;28;19924;-41
2021/03/06 06:56:22;;;;;;;0.00;0.00;;;16.70;56.10;;;;;;4215201;28;20068;-41
2021/03/06 06:58:44;;;;;;;0.00;0.00;;;16.60;56.20;;;;;;4202458;28;20051;-41
2021/03/06 07:01:28;;;;;;;;;;;16.70;56.20;;;;;;4215503;28;20513;-44
2021/03/06 07:03:58;;;;;;;0.00;0.00;;;16.70;56.00;;;;;;4215207;28;19935;-42
2021/03/06 07:06:19;;;;;;;0.00;0.00;;;16.70;55.90;;;;;;4214971;28;20105;-41
2021/03/06 07:08:40;;;;;;;0.00;0.00;;;16.70;56.10;;;;;;4215078;28;20137;-45
2021/03/06 07:11:01;;;;;;;0.32;0.32;;;16.80;56.00;;;;;;4214705;28;20059;-41
2021/03/06 07:13:22;;;;;;;0.00;0.00;;;16.90;55.70;;;;;;4214964;28;20437;-44
2021/03/06 07:15:43;;;;;;;0.00;0.00;;;17.00;55.30;;;;;;4214910;28;20130;-41
2021/03/06 07:18:06;;;;;;;0.00;0.00;;;17.10;55.90;;;;;;4214897;28;20138;-43
2021/03/06 07:20:34;;;;;;;0.00;0.00;;;17.10;55.30;;;;;;4214870;28;20151;-41
2021/03/06 07:22:58;;;;;;;0.00;0.00;;;17.10;55.30;;;;;;4213961;28;20498;-45
2021/03/06 07:25:19;;;;;;;0.00;0.00;;;17.20;55.20;;;;;;4213692;28;20205;-44
2021/03/06 07:27:41;;;;;;;;;;;17.20;54.90;;;;;;4211434;28;20783;-46
2021/03/06 07:30:01;;;;;;;0.10;0.10;;;17.30;54.90;;;;;;4214625;28;19924;-42
2021/03/06 07:32:30;;;;;;;0.10;0.10;;;17.20;55.30;;;;;;4214651;28;20055;-50
2021/03/06 07:34:58;;;;;;;0.10;0.10;;;17.10;55.80;;;;;;4197921;28;20502;-45
2021/03/06 07:37:21;;;;;;;7.28;1.95;;;17.00;56.90;;;;;;4197897;28;20091;-47
2021/03/06 07:39:44;;;;;;;0.20;0.20;;;16.80;57.10;;;;;;4204310;28;20048;-44
2021/03/06 07:42:15;;;;;;;0.00;0.00;;;16.70;57.30;;;;;;4214360;28;20055;-42
2021/03/06 07:44:39;;;;;;;4.80;2.42;;;16.60;57.40;;;;;;4214119;28;20494;-46
2021/03/06 07:47:01;;;;;;;0.00;0.00;;;16.60;57.40;;;;;;4214508;28;20052;-41
2021/03/06 07:49:26;;;;;;;0.30;0.30;;;16.60;57.10;;;;;;4214183;28;20056;-42
2021/03/06 07:51:49;;;;;;;4.75;0.73;;;16.70;56.70;;;;;;4214272;28;20130;-48
2021/03/06 07:54:12;;;;;;;0.00;0.00;;;16.70;56.40;;;;;;4211700;28;20145;-44
2021/03/06 07:56:32;;;;;;;0.00;0.00;;;16.70;57.10;;;;;;4203979;28;20052;-46
2021/03/06 07:58:54;;;;;;;0.00;0.00;;;16.60;56.50;;;;;;4195484;28;20528;-46
2021/03/06 08:01:26;;;;;;;0.00;0.00;;;16.50;56.50;;;;;;4211788;28;20064;-46
2021/03/06 08:03:47;;;;;;;0.00;0.00;;;16.40;56.70;;;;;;4211513;28;20058;-44
2021/03/06 08:06:19;;;;;;;0.00;0.00;;;16.30;56.90;;;;;;4211541;28;20044;-43
2021/03/06 08:08:58;;;;;;;0.00;0.00;;;16.20;57.10;;;;;;4212203;28;20052;-42
2021/03/06 08:11:20;;;;;;;0.00;0.00;;;16.00;57.20;;;;;;4195185;28;20068;-42
2021/03/06 08:13:46;;;;;;;1.00;0.52;;;16.00;57.50;;;;;;4210048;28;20063;-41
2021/03/06 08:16:39;;;;;;;0.05;0.05;;;15.90;57.70;;;;;;4211645;28;20059;-43
2021/03/06 08:19:21;;;;;;;0.00;0.00;;;15.80;58.00;;;;;;4211826;28;20474;-45
2021/03/06 08:21:44;;;;;;;3.20;2.92;;;15.70;58.30;;;;;;4196113;28;20102;-43
2021/03/06 08:24:27;;;;;;;1.35;1.23;;;15.70;58.50;;;;;;4198675;28;20047;-42
2021/03/06 08:26:52;;;;;;;1.20;1.20;;;15.80;58.10;;;;;;4211193;28;20048;-43
2021/03/06 08:29:33;;;;;;;0.00;0.00;;;15.80;57.90;;;;;;4213135;28;20040;-42
2021/03/06 08:31:55;;;;;;;6.13;0.73;;;15.80;57.80;;;;;;4212785;28;20156;-42
2021/03/06 08:34:30;;;;;;;0.00;0.00;;;15.90;57.50;;;;;;4212797;28;20126;-42
2021/03/06 08:36:51;;;;;;;0.00;0.00;;;15.90;57.20;;;;;;4204336;28;20516;-42
2021/03/06 08:39:12;;;;;;;1.77;0.98;;;15.90;57.20;;;;;;4212690;28;20148;-53
2021/03/06 08:41:34;;;;;;;4.43;2.40;;;15.90;57.20;;;;;;4213484;28;20428;-42
2021/03/06 08:43:56;;;;;;;0.00;0.00;;;15.90;57.10;;;;;;4213409;28;20052;-45
2021/03/06 08:46:17;;;;;;;0.90;0.85;;;15.90;57.00;;;;;;4212838;28;20048;-46
2021/03/06 08:48:39;;;;;;;11.07;2.55;;;15.90;57.00;;;;;;4196351;28;20051;-43
2021/03/06 08:51:00;;;;;;;0.00;0.00;;;15.80;57.10;;;;;;4196568;28;20053;-42
2021/03/06 08:53:21;;;;;;;4.35;2.75;;;15.80;57.10;;;;;;4208612;28;20048;-45
2021/03/06 08:55:48;;;;;;;0.00;0.00;;;15.90;56.80;;;;;;4212928;28;20048;-47
2021/03/06 08:58:12;;;;;;;0.22;0.22;;;15.90;56.60;;;;;;4196223;28;20053;-42
2021/03/06 09:00:35;;;;;;;0.10;0.10;;;15.90;57.20;;;;;;4198735;28;20054;-44
2021/03/06 09:02:57;;;;;;;0.00;0.00;;;15.90;56.60;;;;;;4196382;28;20471;-42
2021/03/06 09:05:21;;;;;;;1.38;0.73;;;16.00;56.60;;;;;;4210033;28;20131;-42
2021/03/06 09:07:45;;;;;;;0.30;0.30;;;15.90;56.60;;;;;;4212262;28;20516;-42
2021/03/06 09:10:28;;;;;;;0.00;0.00;;;15.90;56.80;;;;;;4212558;28;20097;-43
2021/03/06 09:12:51;;;;;;;0.10;0.10;;;15.90;56.80;;;;;;4212183;28;20052;-43
2021/03/06 09:15:23;;;;;;;0.00;0.00;;;15.90;56.80;;;;;;4207758;28;20474;-43
2021/03/06 09:17:48;;;;;;;0.00;0.00;;;15.90;56.80;;;;;;4212045;28;20063;-42
2021/03/06 09:20:11;;;;;;;0.20;0.20;;;15.80;57.00;;;;;;4211337;28;20113;-42
2021/03/06 09:22:42;;;;;;;0.00;0.00;;;15.80;57.20;;;;;;4210269;28;20490;-42
2021/03/06 09:25:04;;;;;;;0.25;0.25;;;15.80;57.00;;;;;;4209855;28;20068;-43
2021/03/06 09:27:41;;;;;;;;;;;15.80;57.10;;;;;;4210958;28;20052;-43
2021/03/06 09:30:24;;;;;;;0.00;0.00;;;15.80;57.10;;;;;;4209799;28;20378;-43
2021/03/06 09:32:45;;;;;;;0.45;0.45;;;15.70;57.30;;;;;;4202178;28;20763;-42
2021/03/06 09:35:11;;;;;;;0.20;0.20;;;15.70;57.40;;;;;;4209935;28;20048;-42
2021/03/06 09:37:32;;;;;;;0.32;0.32;;;15.60;57.50;;;;;;4205966;28;20048;-42
2021/03/06 09:39:53;;;;;;;0.10;0.10;;;15.60;57.50;;;;;;4201021;28;20057;-42
2021/03/06 09:42:16;;;;;;;0.00;0.00;;;15.50;57.70;;;;;;4193489;28;20080;-43
2021/03/06 09:44:37;;;;;;;0.47;0.45;;;15.50;57.80;;;;;;4193326;28;20052;-43
2021/03/06 09:47:00;;;;;;;0.00;0.00;;;15.40;58.10;;;;;;4198171;28;20055;-42
2021/03/06 09:49:21;;;;;;;0.43;0.43;;;15.40;58.20;;;;;;4209406;28;20047;-43
2021/03/06 09:51:57;;;;;;;0.17;0.17;;;15.30;58.40;;;;;;4193110;28;20059;-43
2021/03/06 09:54:21;;;;;;;0.00;0.00;;;15.30;58.50;;;;;;4202622;28;20048;-42
2021/03/06 09:56:46;;;;;;;0.00;0.00;;;15.20;58.50;;;;;;4210538;28;20159;-42
2021/03/06 09:59:07;;;;;;;0.10;0.10;;;15.20;58.90;;;;;;4208981;28;20055;-43
2021/03/06 10:01:32;;;;;;;0.10;0.10;;;15.30;58.90;;;;;;4196657;28;20509;-50
2021/03/06 10:04:10;;;;;;;0.03;0.03;;;15.40;59.40;;;;;;4209428;28;20068;-43
2021/03/06 10:06:36;;;;;;;0.60;0.60;;;15.40;59.20;;;;;;4209202;28;20655;-43
2021/03/06 10:09:03;;;;;;;0.00;0.00;;;15.70;58.00;;;;;;4210337;28;20051;-45
2021/03/06 10:11:29;;;;;;;3.47;1.35;;;16.20;56.60;;;;;;4209591;28;20137;-43
2021/03/06 10:13:52;;;;;;;0.50;0.45;;;16.90;55.20;;;;;;4206715;28;20055;-45
2021/03/06 10:16:13;;;;;;;0.00;0.00;;;17.50;53.40;;;;;;4209823;28;20052;-42
2021/03/06 10:18:39;;;;;;;0.17;0.17;;;18.10;51.90;;;;;;4209283;28;20127;-45
2021/03/06 10:21:10;;;;;;;0.00;0.00;;;18.50;50.80;;;;;;4209805;28;20102;-47
2021/03/06 10:23:33;;;;;;;1.92;0.98;;;18.70;50.20;;;;;;4209489;28;20052;-43
2021/03/06 10:26:10;;;;;;;0.00;0.00;;;18.90;50.00;;;;;;4209905;28;20480;-47
2021/03/06 10:28:34;;;;;;;0.00;0.00;;;18.90;49.90;;;;;;4208482;28;20697;-45
2021/03/06 10:31:01;;;;;;;0.00;0.00;;;18.80;49.90;;;;;;4213968;28;20067;-43
2021/03/06 10:33:25;;;;;;;0.08;0.08;;;18.70;50.10;;;;;;4212223;28;20062;-43
2021/03/06 10:35:49;;;;;;;0.00;0.00;;;18.50;50.50;;;;;;4213274;28;20051;-43
2021/03/06 10:38:23;;;;;;;0.00;0.00;;;18.40;50.80;;;;;;4214631;28;20129;-43
2021/03/06 10:40:47;;;;;;;0.22;0.22;;;18.20;51.10;;;;;;4215337;28;20044;-43
2021/03/06 10:43:23;;;;;;;0.00;0.00;;;18.10;51.60;;;;;;4213858;28;20418;-44
2021/03/06 10:45:47;;;;;;;0.00;0.00;;;17.90;52.10;;;;;;4214780;28;20516;-43
2021/03/06 10:48:12;;;;;;;0.00;0.00;;;17.70;52.50;;;;;;4214728;28;20051;-43
2021/03/06 10:50:39;;;;;;;0.00;0.00;;;17.60;52.80;;;;;;4214811;28;20151;-43
2021/03/06 10:53:17;;;;;;;0.00;0.00;;;17.60;52.60;;;;;;4215218;28;20097;-43
2021/03/06 10:55:39;;;;;;;0.10;0.10;;;17.80;52.40;;;;;;4209632;28;20410;-42
2021/03/06 10:58:03;;;;;;;0.00;0.00;;;17.90;51.70;;;;;;4211373;28;20051;-42
2021/03/06 11:00:24;;;;;;;;;;;17.90;51.50;;;;;;4214978;28;20144;-42
2021/03/06 11:02:55;;;;;;;0.67;0.67;;;17.90;51.70;;;;;;4213709;28;19928;-42
2021/03/06 11:05:18;;;;;;;0.00;0.00;;;17.90;51.70;;;;;;4214283;28;20667;-44
2021/03/06 11:07:39;;;;;;;0.00;0.00;;;17.80;51.90;;;;;;4214071;28;20048;-42
2021/03/06 11:10:11;;;;;;;0.00;0.00;;;17.70;52.10;;;;;;4206349;28;20131;-42
2021/03/06 11:12:36;;;;;;;0.00;0.00;;;17.60;52.30;;;;;;4208306;28;20064;-43
2021/03/06 11:15:12;;;;;;;0.00;0.00;;;17.50;52.40;;;;;;4212387;28;20052;-43
2021/03/06 11:17:36;;;;;;;0.00;0.00;;;17.50;52.70;;;;;;4211970;28;20520;-43
2021/03/06 11:19:57;;;;;;;0.00;0.00;;;17.70;52.60;;;;;;4212212;28;20136;-49
2021/03/06 11:22:18;;;;;;;0.25;0.25;;;17.80;52.40;;;;;;4212725;28;20134;-42
2021/03/06 11:24:39;;;;;;;0.55;0.55;;;17.90;52.20;;;;;;4212531;28;20075;-42
2021/03/06 11:27:01;;;;;;;0.00;0.00;;;18.10;51.70;;;;;;4212250;28;20066;-41
2021/03/06 11:29:25;;;;;;;0.00;0.00;;;18.10;51.50;;;;;;4212641;28;20500;-44
2021/03/06 11:32:02;;;;;;;0.93;0.57;;;18.00;51.50;;;;;;4212066;28;20058;-43
2021/03/06 11:34:23;;;;;;;0.30;0.30;;;17.90;51.80;;;;;;4211590;28;20055;-44
2021/03/06 11:36:53;;;;;;;0.40;0.40;;;17.80;52.10;;;;;;4212269;28;20059;-42
2021/03/06 11:39:18;;;;;;;0.00;0.00;;;17.60;52.40;;;;;;4210918;28;20055;-42
2021/03/06 11:41:40;;;;;;;0.20;0.20;;;17.50;52.80;;;;;;4211259;28;20060;-42
2021/03/06 11:44:02;;;;;;;0.77;0.77;;;17.30;53.20;;;;;;4211707;28;20493;-46
2021/03/06 11:46:30;;;;;;;0.10;0.10;;;17.20;53.50;;;;;;4204397;28;20421;-46
2021/03/06 11:49:10;;;;;;;0.00;0.00;;;17.00;53.90;;;;;;4210287;28;20058;-42
2021/03/06 11:51:32;;;;;;;;;;;17.00;54.40;;;;;;4205993;28;20079;-44
2021/03/06 11:53:57;;;;;;;3.42;1.98;;;17.00;54.40;;;;;;4211525;28;19930;-44
2021/03/06 11:56:37;;;;;;;2.28;0.75;;;17.10;54.30;;;;;;4211527;28;20410;-43
2021/03/06 11:58:58;;;;;;;0.10;0.10;;;17.30;53.90;;;;;;4211509;28;20115;-42
2021/03/06 12:01:23;;;;;;;0.00;0.00;;;17.30;53.70;;;;;;4211964;28;20216;-43
2021/03/06 12:03:53;;;;;;;0.00;0.00;;;17.40;53.60;;;;;;4211180;28;20063;-42
2021/03/06 12:06:14;;;;;;;0.30;0.30;;;17.30;53.90;;;;;;4212185;28;20052;-43
2021/03/06 12:08:38;;;;;;;0.93;0.65;;;17.30;54.20;;;;;;4211165;28;20051;-42
2021/03/06 12:11:02;;;;;;;0.00;0.00;;;17.30;54.40;;;;;;4211446;28;20087;-42
2021/03/06 12:13:26;;;;;;;0.25;0.25;;;17.50;54.10;;;;;;4209073;28;20064;-44
2021/03/06 12:15:56;;;;;;;0.17;0.17;;;17.50;53.70;;;;;;4212761;28;20044;-41
2021/03/06 12:18:18;;;;;;;1.95;1.40;;;17.60;53.50;;;;;;4212731;28;20189;-42
2021/03/06 12:20:42;;;;;;;0.28;0.28;;;17.50;53.60;;;;;;4213677;28;20161;-43
2021/03/06 12:23:03;;;;;;;0.00;0.00;;;17.40;54.00;;;;;;4213475;28;20131;-42
2021/03/06 12:25:30;;;;;;;2.17;0.43;;;17.30;54.20;;;;;;4213328;28;20590;-44
2021/03/06 12:27:51;;;;;;;0.00;0.00;;;17.30;54.80;;;;;;4212552;28;20055;-42
2021/03/06 12:30:15;;;;;;;0.17;0.17;;;17.20;55.10;;;;;;4212259;28;20565;-42
2021/03/06 12:32:48;;;;;;;0.00;0.00;;;17.10;55.20;;;;;;4197390;28;20137;-44
2021/03/06 12:35:15;;;;;;;0.00;0.00;;;17.00;55.30;;;;;;4196933;28;20074;-43
2021/03/06 12:37:52;;;;;;;0.05;0.05;;;17.00;55.40;;;;;;4206292;28;20063;-42
2021/03/06 12:40:16;;;;;;;0.00;0.00;;;16.90;55.80;;;;;;4197724;28;20046;-42
2021/03/06 12:42:43;;;;;;;0.20;0.20;;;16.90;55.90;;;;;;4209614;28;20048;-43
2021/03/06 12:45:10;;;;;;;0.00;0.00;;;17.00;55.60;;;;;;4211443;28;20129;-44
2021/03/06 12:47:31;;;;;;;0.10;0.10;;;17.20;55.10;;;;;;4206202;28;20063;-43
2021/03/06 12:49:55;;;;;;;0.52;0.52;;;17.30;54.80;;;;;;4208542;28;20066;-43
2021/03/06 12:52:17;;;;;;;0.00;0.00;;;17.30;54.70;;;;;;4211325;28;20130;-43
2021/03/06 12:54:44;;;;;;;0.20;0.20;;;17.40;54.60;;;;;;4210786;28;20109;-43